createdAt,value
2018-07-06T00:00:04.094Z,43.70
2018-07-06T00:02:30.729Z,43.67
2018-07-06T00:04:57.365Z,43.68
2018-07-06T00:07:24.020Z,43.71
2018-07-06T00:09:50.685Z,43.73
2018-07-06T00:12:17.353Z,43.70
2018-07-06T00:14:43.960Z,43.70
2018-07-06T00:17:10.599Z,43.73
2018-07-06T00:19:37.236Z,43.78
2018-07-06T00:22:03.879Z,43.73
2018-07-06T00:24:30.526Z,43.74
2018-07-06T00:26:57.185Z,43.75
2018-07-06T00:29:23.835Z,43.71
2018-07-06T00:31:50.469Z,43.75
2018-07-06T00:34:17.115Z,43.75
2018-07-06T00:36:43.813Z,43.94
2018-07-06T00:39:10.414Z,43.73
2018-07-06T00:41:37.054Z,43.77
2018-07-06T00:44:03.723Z,43.73
2018-07-06T00:46:30.330Z,43.74
2018-07-06T00:48:56.975Z,43.77
2018-07-06T00:51:23.605Z,43.78
2018-07-06T00:53:50.243Z,43.79
2018-07-06T00:56:16.871Z,43.76
2018-07-06T00:58:43.512Z,43.77
2018-07-06T01:01:10.146Z,43.71
2018-07-06T01:03:36.774Z,43.79
2018-07-06T01:06:03.452Z,43.70
2018-07-06T01:08:30.058Z,43.75
2018-07-06T01:10:56.679Z,43.77
2018-07-06T01:13:23.318Z,43.80
2018-07-06T01:15:49.955Z,43.81
2018-07-06T01:18:16.598Z,43.80
2018-07-06T01:20:43.247Z,43.77
2018-07-06T01:23:09.878Z,43.77
2018-07-06T01:25:36.635Z,43.82
2018-07-06T01:28:03.265Z,43.80
2018-07-06T01:30:29.904Z,43.80
2018-07-06T01:32:56.548Z,43.78
2018-07-06T01:35:23.191Z,43.83
2018-07-06T01:37:49.826Z,43.86
2018-07-06T01:40:16.468Z,43.85
2018-07-06T01:42:43.116Z,43.89
2018-07-06T01:45:09.755Z,43.79
2018-07-06T01:47:36.983Z,43.78
2018-07-06T01:50:03.624Z,43.81
2018-07-06T01:52:30.261Z,43.88
2018-07-06T01:54:56.916Z,43.92
2018-07-06T01:57:23.557Z,43.86
2018-07-06T01:59:50.195Z,43.83
2018-07-06T02:02:16.835Z,43.82
2018-07-06T02:04:43.454Z,43.78
2018-07-06T02:07:10.138Z,43.83
2018-07-06T02:09:36.779Z,43.88
2018-07-06T02:12:03.420Z,43.81
2018-07-06T02:14:30.051Z,43.82
2018-07-06T02:16:56.692Z,43.79
2018-07-06T02:19:23.328Z,43.85
2018-07-06T02:21:49.960Z,43.86
2018-07-06T02:24:16.595Z,43.78
2018-07-06T02:26:43.245Z,43.79
2018-07-06T02:29:09.887Z,43.85
2018-07-06T02:31:36.534Z,43.87
2018-07-06T02:34:03.165Z,43.95
2018-07-06T02:36:29.817Z,43.89
2018-07-06T02:38:56.464Z,43.95
2018-07-06T02:41:23.170Z,43.80
2018-07-06T02:43:49.808Z,43.94
2018-07-06T02:46:16.447Z,43.89
2018-07-06T02:48:43.088Z,43.85
2018-07-06T02:51:09.730Z,43.88
2018-07-06T02:53:36.378Z,43.93
2018-07-06T02:56:03.006Z,43.95
2018-07-06T02:58:29.668Z,43.92
2018-07-06T03:00:56.278Z,43.85
2018-07-06T03:03:22.904Z,43.93
2018-07-06T03:05:49.554Z,43.83
2018-07-06T03:08:16.229Z,43.76
2018-07-06T03:10:42.918Z,43.98
2018-07-06T03:13:09.570Z,44.43
2018-07-06T03:15:36.199Z,44.46
2018-07-06T03:18:02.839Z,44.33
2018-07-06T03:20:29.471Z,44.64
2018-07-06T03:22:56.125Z,44.30
2018-07-06T03:25:22.791Z,44.64
2018-07-06T03:27:49.452Z,44.38
2018-07-06T03:30:16.032Z,44.51
2018-07-06T03:32:42.677Z,44.34
2018-07-06T03:35:09.338Z,44.20
2018-07-06T03:37:35.949Z,44.26
2018-07-06T03:40:02.598Z,44.09
2018-07-06T03:42:29.294Z,43.90
2018-07-06T03:44:56.034Z,44.03
2018-07-06T03:47:22.682Z,43.97
2018-07-06T03:49:49.324Z,44.08
2018-07-06T03:52:15.963Z,43.80
2018-07-06T03:54:42.605Z,44.00
2018-07-06T03:57:09.275Z,43.91
2018-07-06T03:59:35.871Z,43.79
2018-07-06T04:02:02.518Z,43.80
2018-07-06T04:04:29.158Z,43.63
2018-07-06T04:06:55.800Z,43.93
2018-07-06T04:09:22.448Z,43.57
2018-07-06T04:11:49.085Z,43.56
2018-07-06T04:14:15.723Z,43.73
2018-07-06T04:16:42.356Z,43.68
2018-07-06T04:19:08.997Z,43.57
2018-07-06T04:21:35.627Z,43.62
2018-07-06T04:24:02.267Z,43.57
2018-07-06T04:26:28.954Z,43.62
2018-07-06T04:28:55.546Z,43.79
2018-07-06T04:31:22.180Z,43.97
2018-07-06T04:33:48.828Z,44.00
2018-07-06T04:36:15.457Z,44.07
2018-07-06T04:38:42.096Z,44.06
2018-07-06T04:41:08.734Z,44.05
2018-07-06T04:43:35.378Z,43.53
2018-07-06T04:46:02.018Z,43.99
2018-07-06T04:48:28.672Z,43.57
2018-07-06T04:50:55.284Z,43.28
2018-07-06T04:53:21.912Z,43.80
2018-07-06T04:55:48.633Z,44.19
2018-07-06T04:58:15.311Z,44.46
2018-07-06T05:00:41.944Z,44.10
2018-07-06T05:03:08.567Z,43.80
2018-07-06T05:05:35.257Z,43.55
2018-07-06T05:08:01.902Z,43.45
2018-07-06T05:10:28.539Z,43.83
2018-07-06T05:12:55.191Z,44.05
2018-07-06T05:15:21.821Z,43.96
2018-07-06T05:17:48.460Z,43.78
2018-07-06T05:20:15.149Z,43.57
2018-07-06T05:22:41.847Z,43.50
2018-07-06T05:25:08.480Z,43.49
2018-07-06T05:27:35.116Z,43.51
2018-07-06T05:30:01.719Z,43.24
2018-07-06T05:32:28.403Z,43.07
2018-07-06T05:34:55.040Z,43.03
2018-07-06T05:37:21.683Z,43.62
2018-07-06T05:39:48.325Z,43.92
2018-07-06T05:42:14.966Z,44.56
2018-07-06T05:44:41.606Z,44.68
2018-07-06T05:47:08.324Z,44.45
2018-07-06T05:49:34.985Z,44.55
2018-07-06T05:52:01.691Z,44.36
2018-07-06T05:54:28.293Z,44.46
2018-07-06T05:56:54.948Z,44.00
2018-07-06T05:59:21.634Z,43.82
2018-07-06T06:01:48.284Z,44.07
2018-07-06T06:04:14.924Z,43.72
2018-07-06T06:06:41.632Z,43.21
2018-07-06T06:09:08.271Z,43.03
2018-07-06T06:11:34.916Z,42.71
2018-07-06T06:14:01.586Z,42.44
2018-07-06T06:16:28.236Z,42.18
2018-07-06T06:18:54.886Z,41.98
2018-07-06T06:21:25.093Z,41.55
2018-07-06T06:23:51.743Z,41.49
2018-07-06T06:26:18.394Z,41.33
2018-07-06T06:28:45.065Z,41.06
2018-07-06T06:31:11.798Z,41.02
2018-07-06T06:33:38.549Z,40.93
2018-07-06T06:36:05.244Z,40.74
2018-07-06T06:38:31.892Z,40.65
2018-07-06T06:40:59.635Z,40.37
2018-07-06T06:43:26.266Z,40.40
2018-07-06T06:45:52.927Z,40.00
2018-07-06T06:48:19.569Z,39.96
2018-07-06T06:50:46.290Z,40.28
2018-07-06T06:53:12.914Z,40.30
2018-07-06T06:55:39.562Z,40.09
2018-07-06T06:58:06.248Z,40.13
2018-07-06T07:00:32.886Z,40.21
2018-07-06T07:02:59.536Z,40.42
2018-07-06T07:05:28.325Z,40.56
2018-07-06T07:07:52.829Z,40.63
2018-07-06T07:10:19.471Z,40.89
2018-07-06T07:12:46.116Z,40.89
2018-07-06T07:15:12.794Z,40.86
2018-07-06T07:17:40.593Z,40.80
2018-07-06T07:20:07.236Z,40.91
2018-07-06T07:22:33.879Z,40.87
2018-07-06T07:25:00.535Z,41.04
2018-07-06T07:27:27.187Z,41.20
2018-07-06T07:29:53.852Z,41.21
2018-07-06T07:32:20.486Z,41.93
2018-07-06T07:34:47.131Z,43.03
2018-07-06T07:37:13.768Z,42.69
2018-07-06T07:39:40.412Z,43.54
2018-07-06T07:42:07.093Z,43.00
2018-07-06T07:44:34.723Z,43.17
2018-07-06T07:47:01.418Z,42.61
2018-07-06T07:49:28.056Z,42.49
2018-07-06T07:51:54.656Z,42.42
2018-07-06T07:54:21.306Z,42.61
2018-07-06T07:56:48.276Z,42.38
2018-07-06T07:59:14.982Z,42.55
2018-07-06T08:01:41.622Z,42.64
2018-07-06T08:04:08.263Z,42.51
2018-07-06T08:06:34.917Z,42.34
2018-07-06T08:09:01.580Z,42.41
2018-07-06T08:11:28.213Z,42.55
2018-07-06T08:13:54.902Z,42.39
2018-07-06T08:16:24.414Z,42.30
2018-07-06T08:18:51.097Z,42.20
2018-07-06T08:21:17.698Z,42.40
2018-07-06T08:23:44.395Z,42.27
2018-07-06T08:26:11.039Z,42.37
2018-07-06T08:28:37.793Z,42.24
2018-07-06T08:31:04.452Z,42.39
2018-07-06T08:33:31.104Z,42.41
2018-07-06T08:35:57.800Z,42.17
2018-07-06T08:38:24.396Z,42.16
2018-07-06T08:40:51.049Z,41.72
2018-07-06T08:43:17.826Z,41.80
2018-07-06T08:45:44.530Z,41.62
2018-07-06T08:48:11.199Z,41.37
2018-07-06T08:50:39.958Z,41.55
2018-07-06T08:53:04.483Z,41.27
2018-07-06T08:55:31.125Z,41.20
2018-07-06T08:57:57.764Z,40.88
2018-07-06T09:00:24.411Z,40.91
2018-07-06T09:02:51.051Z,40.68
2018-07-06T09:05:17.701Z,40.88
2018-07-06T09:07:44.375Z,40.39
2018-07-06T09:10:11.019Z,40.53
2018-07-06T09:12:37.658Z,40.34
2018-07-06T09:15:04.310Z,40.45
2018-07-06T09:17:30.943Z,40.28
2018-07-06T09:19:57.949Z,40.14
2018-07-06T09:22:24.221Z,39.86
2018-07-06T09:24:50.861Z,40.06
2018-07-06T09:27:17.503Z,40.03
2018-07-06T09:29:44.242Z,39.43
2018-07-06T09:32:10.871Z,39.96
2018-07-06T09:34:37.504Z,39.62
2018-07-06T09:37:04.147Z,39.70
2018-07-06T09:39:30.815Z,39.82
2018-07-06T09:41:57.426Z,40.00
2018-07-06T09:44:24.105Z,39.48
2018-07-06T09:46:50.713Z,39.92
2018-07-06T09:49:17.372Z,40.03
2018-07-06T09:51:44.052Z,40.48
2018-07-06T09:54:10.718Z,41.38
2018-07-06T09:56:37.356Z,42.27
2018-07-06T09:59:03.987Z,41.91
2018-07-06T10:01:30.692Z,40.19
2018-07-06T10:03:57.311Z,40.90
2018-07-06T10:06:23.951Z,40.99
2018-07-06T10:08:50.597Z,40.88
2018-07-06T10:11:19.819Z,41.12
2018-07-06T10:13:46.482Z,41.17
2018-07-06T10:16:13.239Z,41.23
2018-07-06T10:18:39.855Z,40.97
2018-07-06T10:21:06.487Z,41.03
2018-07-06T10:23:33.155Z,41.03
2018-07-06T10:25:59.798Z,40.88
2018-07-06T10:28:26.444Z,40.90
2018-07-06T10:30:53.086Z,40.91
2018-07-06T10:33:19.798Z,40.75
2018-07-06T10:35:46.372Z,40.62
2018-07-06T10:38:13.018Z,40.55
2018-07-06T10:40:39.659Z,40.53
2018-07-06T10:43:06.329Z,40.51
2018-07-06T10:45:32.977Z,40.91
2018-07-06T10:47:59.651Z,41.13
2018-07-06T10:50:26.300Z,40.67
2018-07-06T10:52:52.929Z,41.42
2018-07-06T10:55:19.609Z,40.42
2018-07-06T10:57:46.252Z,40.50
2018-07-06T11:00:12.938Z,41.27
2018-07-06T11:02:39.592Z,41.18
2018-07-06T11:05:06.281Z,40.99
2018-07-06T11:07:32.926Z,41.16
2018-07-06T11:09:59.694Z,41.01
2018-07-06T11:12:26.311Z,40.97
2018-07-06T11:14:52.952Z,40.81
2018-07-06T11:17:21.539Z,40.92
2018-07-06T11:19:46.275Z,41.08
2018-07-06T11:22:12.922Z,40.71
2018-07-06T11:24:40.771Z,40.71
2018-07-06T11:27:07.413Z,40.71
2018-07-06T11:29:34.108Z,40.77
2018-07-06T11:32:00.749Z,40.67
2018-07-06T11:34:27.397Z,41.37
2018-07-06T11:36:54.098Z,40.40
2018-07-06T11:39:20.730Z,40.60
2018-07-06T11:41:47.359Z,41.00
2018-07-06T11:44:14.004Z,40.46
2018-07-06T11:46:40.646Z,41.35
2018-07-06T11:49:07.396Z,42.15
2018-07-06T11:51:34.143Z,42.62
2018-07-06T11:54:00.824Z,43.02
2018-07-06T11:56:27.464Z,43.04
2018-07-06T11:58:54.114Z,42.70
2018-07-06T12:01:20.745Z,42.34
2018-07-06T12:03:47.418Z,42.27
2018-07-06T12:06:15.044Z,42.07
2018-07-06T12:08:41.699Z,41.85
2018-07-06T12:11:08.391Z,41.71
2018-07-06T12:13:35.225Z,41.80
2018-07-06T12:16:01.830Z,41.65
2018-07-06T12:18:28.471Z,41.31
2018-07-06T12:20:55.164Z,41.45
2018-07-06T12:23:21.819Z,41.11
2018-07-06T12:25:48.571Z,41.22
2018-07-06T12:28:15.166Z,41.19
2018-07-06T12:30:41.860Z,40.98
2018-07-06T12:33:08.491Z,41.11
2018-07-06T12:35:35.136Z,41.20
2018-07-06T12:38:01.788Z,41.03
2018-07-06T12:40:28.424Z,41.37
2018-07-06T12:42:55.068Z,41.61
2018-07-06T12:45:21.754Z,41.94
2018-07-06T12:47:48.400Z,42.07
2018-07-06T12:50:15.033Z,42.25
2018-07-06T12:52:41.678Z,42.34
2018-07-06T12:55:08.337Z,42.43
2018-07-06T12:57:35.216Z,42.52
2018-07-06T13:00:02.946Z,42.64
2018-07-06T13:02:29.582Z,42.63
2018-07-06T13:04:56.240Z,42.80
2018-07-06T13:07:23.301Z,42.34
2018-07-06T13:09:50.406Z,42.08
2018-07-06T13:12:17.020Z,42.33
2018-07-06T13:14:43.684Z,41.74
2018-07-06T13:17:10.370Z,41.95
2018-07-06T13:19:37.078Z,41.60
2018-07-06T13:22:03.644Z,41.41
2018-07-06T13:24:30.273Z,41.43
2018-07-06T13:26:56.927Z,41.37
2018-07-06T13:29:23.577Z,41.58
2018-07-06T13:31:50.223Z,41.39
2018-07-06T13:34:16.900Z,41.24
2018-07-06T13:36:43.551Z,41.18
2018-07-06T13:39:10.295Z,40.93
2018-07-06T13:41:36.887Z,41.47
2018-07-06T13:44:03.549Z,41.11
2018-07-06T13:46:30.188Z,41.10
2018-07-06T13:48:56.914Z,40.96
2018-07-06T13:51:23.589Z,40.89
2018-07-06T13:53:50.234Z,40.72
2018-07-06T13:56:16.899Z,40.28
2018-07-06T13:58:43.683Z,40.54
2018-07-06T14:01:10.319Z,40.34
2018-07-06T14:03:36.975Z,40.58
2018-07-06T14:06:03.714Z,39.89
2018-07-06T14:08:30.360Z,40.42
2018-07-06T14:10:57.143Z,39.70
2018-07-06T14:13:23.808Z,39.48
2018-07-06T14:15:50.454Z,39.88
2018-07-06T14:18:17.114Z,39.55
2018-07-06T14:20:43.756Z,39.57
2018-07-06T14:23:10.434Z,39.46
2018-07-06T14:25:37.064Z,39.73
2018-07-06T14:28:03.797Z,39.30
2018-07-06T14:30:30.418Z,39.12
2018-07-06T14:32:57.087Z,39.40
2018-07-06T14:35:23.758Z,40.03
2018-07-06T14:37:50.873Z,38.79
2018-07-06T14:40:17.650Z,38.64
2018-07-06T14:42:44.329Z,38.80
2018-07-06T14:45:10.989Z,38.81
2018-07-06T14:47:37.633Z,38.57
2018-07-06T14:50:04.265Z,38.98
2018-07-06T14:52:30.900Z,38.51
2018-07-06T14:54:57.580Z,38.46
2018-07-06T14:57:24.214Z,38.51
2018-07-06T14:59:50.963Z,38.85
2018-07-06T15:02:17.595Z,38.26
2018-07-06T15:04:44.232Z,38.15
2018-07-06T15:07:10.871Z,37.80
2018-07-06T15:09:37.517Z,37.51
2018-07-06T15:12:04.237Z,37.42
2018-07-06T15:14:30.902Z,37.00
2018-07-06T15:16:57.508Z,37.03
2018-07-06T15:19:24.216Z,37.79
2018-07-06T15:21:50.853Z,37.70
2018-07-06T15:24:17.536Z,37.58
2018-07-06T15:26:44.174Z,37.47
2018-07-06T15:29:10.811Z,36.96
2018-07-06T15:31:37.460Z,36.79
2018-07-06T15:34:04.152Z,36.91
2018-07-06T15:36:30.784Z,36.58
2018-07-06T15:38:59.564Z,36.17
2018-07-06T15:41:26.160Z,36.44
2018-07-06T15:43:52.792Z,36.03
2018-07-06T15:46:19.485Z,35.93
2018-07-06T15:48:46.118Z,35.77
2018-07-06T15:51:12.756Z,35.73
2018-07-06T15:53:39.393Z,35.61
2018-07-06T15:56:06.044Z,35.35
2018-07-06T15:58:32.695Z,35.38
2018-07-06T16:00:59.334Z,35.42
2018-07-06T16:03:25.977Z,35.13
2018-07-06T16:05:52.668Z,35.12
2018-07-06T16:08:19.306Z,34.97
2018-07-06T16:10:45.935Z,34.67
2018-07-06T16:13:12.618Z,34.56
2018-07-06T16:15:39.218Z,34.87
2018-07-06T16:18:05.856Z,34.65
2018-07-06T16:20:32.493Z,34.35
2018-07-06T16:22:59.152Z,34.31
2018-07-06T16:25:25.774Z,34.51
2018-07-06T16:27:52.477Z,34.18
2018-07-06T16:30:19.108Z,33.96
2018-07-06T16:32:45.750Z,34.03
2018-07-06T16:35:12.440Z,33.84
2018-07-06T16:37:39.082Z,33.92
2018-07-06T16:40:05.762Z,33.75
2018-07-06T16:42:32.413Z,33.56
2018-07-06T16:44:59.046Z,33.49
2018-07-06T16:47:27.899Z,33.37
2018-07-06T16:49:52.402Z,33.56
2018-07-06T16:52:19.074Z,33.44
2018-07-06T16:54:45.666Z,33.47
2018-07-06T16:57:12.314Z,33.24
2018-07-06T16:59:38.946Z,33.26
2018-07-06T17:02:05.657Z,33.06
2018-07-06T17:04:32.294Z,33.12
2018-07-06T17:06:58.980Z,32.96
2018-07-06T17:09:25.654Z,32.93
2018-07-06T17:11:52.319Z,32.84
2018-07-06T17:14:19.001Z,32.86
2018-07-06T17:16:45.608Z,32.76
2018-07-06T17:19:12.292Z,32.87
2018-07-06T17:21:38.889Z,32.89
2018-07-06T17:24:05.539Z,32.75
2018-07-06T17:26:32.209Z,32.72
2018-07-06T17:28:58.924Z,32.88
2018-07-06T17:31:25.612Z,32.58
2018-07-06T17:33:52.233Z,32.71
2018-07-06T17:36:18.871Z,32.62
2018-07-06T17:38:45.527Z,32.55
2018-07-06T17:41:12.257Z,32.48
2018-07-06T17:43:38.910Z,32.41
2018-07-06T17:46:05.512Z,32.35
2018-07-06T17:48:32.240Z,32.23
2018-07-06T17:50:58.854Z,32.53
2018-07-06T17:53:25.539Z,33.32
2018-07-06T17:55:52.177Z,33.45
2018-07-06T17:58:18.844Z,34.05
2018-07-06T18:00:45.446Z,34.76
2018-07-06T18:03:12.241Z,35.29
2018-07-06T18:05:38.886Z,34.98
2018-07-06T18:08:05.522Z,35.21
2018-07-06T18:10:32.151Z,35.33
2018-07-06T18:12:58.822Z,35.26
2018-07-06T18:15:25.458Z,34.77
2018-07-06T18:17:52.139Z,34.65
2018-07-06T18:20:18.778Z,34.68
2018-07-06T18:22:45.461Z,34.49
2018-07-06T18:25:12.168Z,34.58
2018-07-06T18:27:38.801Z,34.38
2018-07-06T18:30:05.425Z,34.18
2018-07-06T18:32:32.190Z,34.04
2018-07-06T18:34:58.786Z,33.99
2018-07-06T18:37:25.439Z,33.85
2018-07-06T18:39:52.074Z,33.69
2018-07-06T18:42:18.718Z,33.61
2018-07-06T18:44:45.344Z,33.42
2018-07-06T18:47:12.022Z,33.49
2018-07-06T18:49:38.661Z,33.48
2018-07-06T18:52:05.299Z,33.27
2018-07-06T18:54:31.947Z,33.17
2018-07-06T18:56:58.621Z,33.18
2018-07-06T18:59:25.259Z,33.15
2018-07-06T19:01:51.943Z,32.98
2018-07-06T19:04:18.621Z,32.87
2018-07-06T19:06:45.252Z,32.79
2018-07-06T19:09:11.899Z,32.72
2018-07-06T19:11:38.577Z,32.60
2018-07-06T19:14:05.212Z,32.49
2018-07-06T19:16:31.899Z,32.44
2018-07-06T19:18:58.575Z,32.42
2018-07-06T19:21:25.200Z,32.33
2018-07-06T19:23:51.888Z,32.18
2018-07-06T19:26:18.527Z,32.26
2018-07-06T19:28:45.293Z,32.09
2018-07-06T19:31:11.929Z,32.98
2018-07-06T19:33:38.612Z,34.25
2018-07-06T19:36:05.276Z,34.66
2018-07-06T19:38:31.959Z,34.52
2018-07-06T19:40:58.609Z,34.81
2018-07-06T19:43:25.286Z,33.99
2018-07-06T19:45:53.302Z,34.10
2018-07-06T19:48:18.602Z,34.08
2018-07-06T19:50:45.285Z,33.89
2018-07-06T19:53:11.975Z,33.87
2018-07-06T19:55:38.618Z,33.73
2018-07-06T19:58:05.293Z,33.67
2018-07-06T20:00:31.942Z,33.51
2018-07-06T20:02:58.627Z,33.42
2018-07-06T20:05:25.309Z,33.33
2018-07-06T20:07:51.977Z,33.24
2018-07-06T20:10:18.594Z,33.03
2018-07-06T20:12:45.242Z,33.02
2018-07-06T20:15:11.921Z,32.96
2018-07-06T20:17:38.554Z,32.81
2018-07-06T20:20:05.239Z,32.78
2018-07-06T20:22:31.924Z,32.93
2018-07-06T20:24:58.561Z,34.06
2018-07-06T20:27:25.287Z,35.13
2018-07-06T20:29:51.933Z,35.04
2018-07-06T20:32:18.567Z,35.11
2018-07-06T20:34:45.223Z,34.76
2018-07-06T20:37:11.938Z,34.46
2018-07-06T20:39:38.577Z,34.64
2018-07-06T20:42:05.218Z,34.44
2018-07-06T20:44:31.863Z,34.36
2018-07-06T20:46:58.503Z,34.23
2018-07-06T20:49:25.131Z,34.17
2018-07-06T20:51:51.781Z,34.04
2018-07-06T20:54:18.416Z,33.90
2018-07-06T20:56:45.055Z,33.82
2018-07-06T20:59:11.702Z,33.59
2018-07-06T21:01:38.332Z,33.60
2018-07-06T21:04:04.978Z,33.50
2018-07-06T21:06:31.614Z,33.35
2018-07-06T21:08:58.256Z,33.28
2018-07-06T21:11:24.898Z,33.19
2018-07-06T21:13:51.527Z,33.02
2018-07-06T21:16:18.169Z,34.07
2018-07-06T21:18:44.809Z,35.50
2018-07-06T21:21:11.516Z,35.51
2018-07-06T21:23:38.151Z,35.35
2018-07-06T21:26:04.789Z,35.53
2018-07-06T21:28:31.432Z,34.82
2018-07-06T21:30:58.068Z,34.91
2018-07-06T21:33:24.705Z,34.78
2018-07-06T21:35:51.380Z,34.69
2018-07-06T21:38:17.989Z,34.56
2018-07-06T21:40:44.638Z,34.52
2018-07-06T21:43:11.293Z,34.29
2018-07-06T21:45:37.925Z,34.13
2018-07-06T21:48:04.560Z,34.11
2018-07-06T21:50:31.198Z,33.94
2018-07-06T21:52:57.874Z,33.80
2018-07-06T21:55:24.475Z,33.62
2018-07-06T21:57:51.104Z,33.55
2018-07-06T22:00:17.752Z,33.54
2018-07-06T22:02:44.393Z,33.31
2018-07-06T22:05:11.031Z,33.29
2018-07-06T22:07:37.669Z,33.16
2018-07-06T22:10:04.333Z,35.00
2018-07-06T22:12:30.971Z,35.67
2018-07-06T22:14:57.643Z,35.41
2018-07-06T22:17:24.250Z,35.63
2018-07-06T22:19:50.890Z,35.22
2018-07-06T22:22:17.522Z,35.03
2018-07-06T22:24:44.168Z,35.11
2018-07-06T22:27:10.806Z,34.90
2018-07-06T22:29:37.440Z,34.76
2018-07-06T22:32:04.083Z,34.69
2018-07-06T22:34:30.717Z,34.56
2018-07-06T22:36:57.361Z,34.51
2018-07-06T22:39:24.011Z,34.26
2018-07-06T22:41:50.657Z,34.19
2018-07-06T22:44:17.294Z,35.57
2018-07-06T22:46:43.939Z,36.58
2018-07-06T22:49:10.587Z,36.63
2018-07-06T22:51:37.248Z,36.56
2018-07-06T22:54:03.892Z,36.64
2018-07-06T22:56:30.541Z,36.85
2018-07-06T22:58:57.223Z,36.88
2018-07-06T23:01:23.859Z,36.83
2018-07-06T23:03:50.503Z,36.92
2018-07-06T23:06:17.241Z,37.03
2018-07-06T23:08:43.774Z,37.09
2018-07-06T23:11:10.413Z,37.05
2018-07-06T23:13:37.192Z,37.26
2018-07-06T23:16:03.686Z,37.32
2018-07-06T23:18:30.319Z,37.57
2018-07-06T23:20:56.956Z,37.61
2018-07-06T23:23:23.596Z,37.57
2018-07-06T23:25:50.253Z,37.67
2018-07-06T23:28:16.891Z,37.62
2018-07-06T23:30:43.577Z,37.74
2018-07-06T23:33:10.302Z,37.84
2018-07-06T23:35:36.905Z,38.03
2018-07-06T23:38:03.544Z,37.99
2018-07-06T23:40:30.180Z,38.08
2018-07-06T23:42:56.807Z,38.17
2018-07-06T23:45:23.494Z,38.30
2018-07-06T23:47:50.093Z,38.37
2018-07-06T23:50:16.730Z,38.41
2018-07-06T23:52:43.380Z,38.53
2018-07-06T23:55:10.024Z,38.57
2018-07-06T23:57:36.663Z,38.50
